Time;durP1;ratioP1;P1;durP2;ratioP2;P2;SDS_P1;SDS_P2;PMS_P1;PMS_P2;Temp;Humidity;BMP_temperature;BMP_pressure;BME280_temperature;BME280_humidity;BME280_pressure;Samples;Min_cycle;Max_cycle;Signal;HPM_P1;HPM_P2
2023/07/09 00:01:17;;;;;;;1.70;1.33;;;21.10;92.30;;;;;;5047872;28;20210;-68
2023/07/09 00:03:44;;;;;;;1.40;1.30;;;21.10;92.30;;;;;;5058865;28;20247;-67
2023/07/09 00:06:13;;;;;;;1.25;1.20;;;21.10;92.30;;;;;;5069302;28;20223;-68
2023/07/09 00:08:46;;;;;;;1.30;1.20;;;21.10;92.30;;;;;;5053053;28;20302;-68
2023/07/09 00:11:13;;;;;;;1.42;1.33;;;21.10;92.60;;;;;;5068589;28;20237;-67
2023/07/09 00:13:40;;;;;;;1.08;1.08;;;21.10;92.30;;;;;;5073304;28;20546;-67
2023/07/09 00:16:20;;;;;;;1.40;1.30;;;21.10;92.30;;;;;;5073175;28;20258;-67
2023/07/09 00:18:48;;;;;;;1.23;1.15;;;21.00;92.30;;;;;;5072534;28;20200;-66
2023/07/09 00:21:16;;;;;;;1.40;1.25;;;21.00;92.30;;;;;;5068828;28;20197;-68
2023/07/09 00:23:45;;;;;;;2.00;1.27;;;21.00;92.30;;;;;;5073681;28;20673;-68
2023/07/09 00:26:14;;;;;;;1.33;1.23;;;21.00;92.30;;;;;;5071905;28;20193;-68
2023/07/09 00:28:43;;;;;;;1.02;1.02;;;21.00;92.30;;;;;;5072703;28;20205;-67
2023/07/09 00:31:14;;;;;;;0.82;0.82;;;20.90;92.20;;;;;;5042349;28;20671;-67
2023/07/09 00:33:42;;;;;;;1.30;1.20;;;20.90;92.20;;;;;;5053595;28;20603;-67
2023/07/09 00:36:15;;;;;;;1.38;1.27;;;20.90;92.20;;;;;;5054872;28;20223;-68
2023/07/09 00:38:47;;;;;;;1.00;1.00;;;20.90;92.20;;;;;;5071973;28;20555;-67
2023/07/09 00:41:18;;;;;;;1.00;1.00;;;20.90;92.20;;;;;;5071402;28;20551;-67
2023/07/09 00:43:47;;;;;;;0.90;0.90;;;20.90;92.20;;;;;;5053966;28;20282;-67
2023/07/09 00:47:03;;;;;;;1.00;1.00;;;20.80;92.20;;;;;;5045485;28;20200;-67
2023/07/09 00:49:34;;;;;;;1.58;1.25;;;20.80;92.20;;;;;;4987279;28;20205;-68
2023/07/09 00:52:04;;;;;;;1.30;1.20;;;20.80;92.20;;;;;;5049791;28;20713;-68
2023/07/09 00:54:36;;;;;;;1.42;1.10;;;20.80;92.20;;;;;;5070429;28;20296;-67
2023/07/09 00:57:08;;;;;;;1.02;1.02;;;20.80;92.20;;;;;;5059553;28;20315;-67
2023/07/09 00:59:36;;;;;;;1.20;1.00;;;20.80;92.20;;;;;;5045869;28;20203;-67
2023/07/09 01:02:06;;;;;;;1.30;1.20;;;20.80;92.20;;;;;;5044122;28;20213;-67
2023/07/09 01:04:34;;;;;;;1.20;1.10;;;20.80;92.20;;;;;;5066246;28;20204;-68
2023/07/09 01:07:01;;;;;;;1.35;1.30;;;20.80;92.20;;;;;;5054880;28;20665;-67
2023/07/09 01:09:28;;;;;;;1.40;1.30;;;20.80;92.20;;;;;;5053643;28;20742;-66
2023/07/09 01:12:01;;;;;;;1.40;1.35;;;20.80;92.30;;;;;;5055932;28;20205;-67
2023/07/09 01:14:28;;;;;;;1.10;1.10;;;20.80;92.30;;;;;;5053267;28;20277;-67
2023/07/09 01:17:01;;;;;;;1.27;1.27;;;20.70;92.30;;;;;;5053756;28;20210;-68
2023/07/09 01:19:32;;;;;;;1.38;1.27;;;20.70;92.40;;;;;;5064060;28;20194;-68
2023/07/09 01:22:01;;;;;;;1.13;1.13;;;20.70;92.50;;;;;;5062381;28;20260;-67
2023/07/09 01:24:52;;;;;;;1.17;1.10;;;20.70;92.60;;;;;;5048010;28;20197;-67
2023/07/09 01:27:22;;;;;;;1.40;1.30;;;20.70;92.60;;;;;;5059723;28;20193;-68
2023/07/09 01:29:49;;;;;;;1.23;1.13;;;20.60;92.70;;;;;;5052331;28;20672;-68
2023/07/09 01:32:18;;;;;;;1.50;1.40;;;20.60;92.70;;;;;;5070682;28;20190;-67
2023/07/09 01:34:47;;;;;;;1.63;1.52;;;20.70;92.80;;;;;;5053978;28;20201;-67
2023/07/09 01:37:16;;;;;;;1.80;1.70;;;20.70;92.80;;;;;;5063194;28;20267;-68
2023/07/09 01:39:43;;;;;;;1.60;1.50;;;20.80;92.80;;;;;;5061870;28;20194;-68
2023/07/09 01:42:11;;;;;;;1.63;1.52;;;20.70;92.80;;;;;;5053561;28;20206;-67
2023/07/09 01:44:40;;;;;;;1.50;1.40;;;20.70;92.80;;;;;;5038253;28;20591;-67
2023/07/09 01:47:07;;;;;;;1.92;1.60;;;20.60;92.90;;;;;;5063681;28;20224;-67
2023/07/09 01:49:34;;;;;;;1.60;1.50;;;20.60;93.00;;;;;;5052209;28;20861;-67
2023/07/09 01:52:03;;;;;;;1.63;1.52;;;20.60;93.10;;;;;;5055682;28;20280;-67
2023/07/09 01:54:33;;;;;;;1.52;1.42;;;20.50;93.10;;;;;;5042205;28;20214;-68
2023/07/09 01:57:19;;;;;;;1.77;1.67;;;20.50;93.20;;;;;;5068111;28;20212;-67
2023/07/09 01:59:46;;;;;;;1.50;1.40;;;20.40;93.30;;;;;;5052333;28;20210;-67
2023/07/09 02:02:18;;;;;;;1.38;1.38;;;20.40;93.40;;;;;;5048782;28;20673;-67
2023/07/09 02:04:49;;;;;;;1.60;1.50;;;20.40;93.50;;;;;;5062113;28;20216;-67
2023/07/09 02:07:16;;;;;;;1.48;1.48;;;20.40;93.60;;;;;;5066530;28;20213;-68
2023/07/09 02:09:45;;;;;;;1.35;1.30;;;20.30;93.70;;;;;;5064009;28;20697;-67
2023/07/09 02:12:14;;;;;;;2.05;1.85;;;20.30;93.70;;;;;;5064490;28;20590;-67
2023/07/09 02:14:42;;;;;;;2.00;1.90;;;20.30;93.80;;;;;;5044367;28;20236;-67
2023/07/09 02:17:10;;;;;;;2.10;2.00;;;20.30;93.80;;;;;;5061782;28;20209;-67
2023/07/09 02:19:38;;;;;;;2.58;2.38;;;20.20;93.80;;;;;;5066548;28;20193;-67
2023/07/09 02:22:06;;;;;;;2.63;2.42;;;20.20;93.90;;;;;;5060315;28;20198;-68
2023/07/09 02:24:33;;;;;;;2.08;1.98;;;20.20;94.00;;;;;;5061027;28;20250;-67
2023/07/09 02:27:04;;;;;;;2.17;2.08;;;20.20;94.10;;;;;;5069824;28;20197;-67
2023/07/09 02:29:32;;;;;;;2.28;2.08;;;20.20;94.20;;;;;;5058293;28;20712;-67
2023/07/09 02:32:01;;;;;;;2.08;1.98;;;20.20;94.20;;;;;;5065799;28;20193;-66
2023/07/09 02:34:29;;;;;;;1.83;1.73;;;20.20;94.20;;;;;;5057008;28;20710;-66
2023/07/09 02:36:58;;;;;;;2.28;2.10;;;20.20;94.20;;;;;;5041755;28;20369;-67
2023/07/09 02:39:26;;;;;;;2.47;2.28;;;20.30;94.30;;;;;;5066662;28;20269;-67
2023/07/09 02:41:53;;;;;;;2.38;2.28;;;20.30;94.40;;;;;;5062983;28;20263;-67
2023/07/09 02:44:21;;;;;;;2.05;1.95;;;20.30;94.40;;;;;;5045606;28;20213;-68
2023/07/09 02:46:48;;;;;;;1.80;1.70;;;20.30;94.40;;;;;;5067030;28;20194;-68
2023/07/09 02:49:16;;;;;;;2.50;2.30;;;20.30;94.50;;;;;;5071553;28;20200;-68
2023/07/09 02:51:44;;;;;;;2.03;1.92;;;20.30;94.50;;;;;;5050348;28;20194;-67
2023/07/09 02:54:11;;;;;;;1.90;1.80;;;20.30;94.60;;;;;;5044404;28;20291;-68
2023/07/09 02:56:38;;;;;;;4.82;2.22;;;20.30;94.70;;;;;;5056264;28;20244;-68
2023/07/09 02:59:06;;;;;;;2.33;2.13;;;20.30;94.70;;;;;;5044834;28;20201;-67
2023/07/09 03:01:35;;;;;;;2.17;2.00;;;20.30;94.80;;;;;;5051675;28;20210;-66
2023/07/09 03:04:04;;;;;;;2.20;2.00;;;20.30;94.90;;;;;;5051086;28;20197;-66
2023/07/09 03:06:33;;;;;;;1.90;1.80;;;20.30;94.90;;;;;;5051557;28;20198;-67
2023/07/09 03:09:02;;;;;;;2.38;2.17;;;20.30;95.00;;;;;;5051558;28;20234;-66
2023/07/09 03:11:31;;;;;;;1.85;1.75;;;20.20;95.10;;;;;;5051230;28;20203;-66
2023/07/09 03:13:58;;;;;;;1.92;1.83;;;20.20;95.20;;;;;;5049611;28;20204;-66
2023/07/09 03:16:27;;;;;;;2.00;1.90;;;20.20;95.30;;;;;;5050588;28;20213;-66
2023/07/09 03:18:56;;;;;;;3.05;2.42;;;20.10;95.40;;;;;;5043995;28;20380;-67
2023/07/09 03:21:23;;;;;;;1.98;1.88;;;20.20;95.60;;;;;;5060547;28;20209;-66
2023/07/09 03:23:51;;;;;;;2.00;1.90;;;20.20;96.00;;;;;;5057048;28;20208;-67
2023/07/09 03:26:19;;;;;;;1.90;1.80;;;20.20;95.80;;;;;;5067220;28;20213;-67
2023/07/09 03:28:46;;;;;;;1.92;1.83;;;20.20;95.80;;;;;;5060185;28;20198;-67
2023/07/09 03:31:13;;;;;;;1.75;1.65;;;20.20;95.90;;;;;;5060049;28;20232;-67
2023/07/09 03:33:40;;;;;;;1.50;1.45;;;20.20;96.00;;;;;;5044918;28;20263;-67
2023/07/09 03:36:09;;;;;;;1.70;1.60;;;20.30;96.10;;;;;;5060296;28;20213;-67
2023/07/09 03:38:36;;;;;;;2.00;1.90;;;20.20;96.10;;;;;;5063417;28;20198;-67
2023/07/09 03:41:03;;;;;;;2.17;2.08;;;20.20;96.20;;;;;;5060223;28;20193;-67
2023/07/09 03:43:30;;;;;;;2.40;2.20;;;20.20;96.30;;;;;;5067705;28;20201;-67
2023/07/09 03:45:57;;;;;;;2.10;2.00;;;20.30;96.40;;;;;;5073721;28;20181;-67
2023/07/09 03:48:24;;;;;;;2.50;2.30;;;20.20;96.40;;;;;;5072941;28;20276;-67
2023/07/09 03:50:51;;;;;;;2.35;2.15;;;20.30;96.60;;;;;;5070300;28;20626;-67
2023/07/09 03:53:20;;;;;;;2.45;2.20;;;20.20;96.60;;;;;;5067065;28;20194;-67
2023/07/09 03:55:52;;;;;;;2.00;1.80;;;20.20;96.70;;;;;;5064097;28;20754;-68
2023/07/09 03:58:19;;;;;;;2.55;2.30;;;20.20;96.80;;;;;;5058893;28;20239;-67
2023/07/09 04:00:46;;;;;;;1.90;1.80;;;20.20;96.80;;;;;;5059614;28;20254;-67
2023/07/09 04:03:13;;;;;;;3.13;2.10;;;20.30;97.00;;;;;;5058319;28;20204;-67
2023/07/09 04:05:40;;;;;;;3.70;2.47;;;20.30;97.00;;;;;;5057479;28;20197;-66
2023/07/09 04:08:07;;;;;;;3.00;2.70;;;20.30;97.10;;;;;;5056006;28;20202;-67
2023/07/09 04:10:36;;;;;;;2.63;2.42;;;20.20;97.00;;;;;;5055056;28;20321;-67
2023/07/09 04:13:03;;;;;;;2.50;2.30;;;20.20;97.10;;;;;;5057034;28;20221;-68
2023/07/09 04:15:30;;;;;;;2.25;2.10;;;20.20;97.20;;;;;;5062743;28;20233;-67
2023/07/09 04:17:57;;;;;;;2.30;2.10;;;20.20;97.20;;;;;;5054498;28;20234;-67
2023/07/09 04:20:24;;;;;;;2.38;2.17;;;20.20;97.30;;;;;;5072929;28;20690;-67
2023/07/09 04:22:51;;;;;;;1.80;1.70;;;20.20;97.20;;;;;;5062472;28;20213;-67
2023/07/09 04:25:18;;;;;;;2.45;2.25;;;20.20;97.30;;;;;;5067266;28;20224;-67
2023/07/09 04:27:47;;;;;;;4.05;2.30;;;20.30;97.40;;;;;;5064486;28;20224;-66
2023/07/09 04:30:15;;;;;;;2.35;2.15;;;20.30;97.40;;;;;;5048499;28;20205;-66
2023/07/09 04:32:44;;;;;;;2.00;1.90;;;20.40;97.40;;;;;;5071834;28;20253;-67
2023/07/09 04:35:12;;;;;;;2.38;2.17;;;20.40;97.40;;;;;;5069634;28;20202;-67
2023/07/09 04:37:39;;;;;;;1.90;1.73;;;20.40;97.40;;;;;;5066956;28;20236;-67
2023/07/09 04:40:10;;;;;;;2.58;2.33;;;20.40;97.40;;;;;;5061435;28;20196;-68
2023/07/09 04:42:39;;;;;;;2.13;1.92;;;20.40;97.40;;;;;;5069139;28;20208;-67
2023/07/09 04:45:10;;;;;;;1.95;1.85;;;20.50;97.50;;;;;;5068638;28;20508;-67
2023/07/09 04:47:38;;;;;;;1.80;1.70;;;20.50;97.60;;;;;;5068119;28;20193;-67
2023/07/09 04:50:07;;;;;;;2.25;2.10;;;20.50;98.00;;;;;;5065235;28;20306;-66
2023/07/09 04:52:34;;;;;;;2.40;2.20;;;20.60;97.80;;;;;;5073021;28;20208;-66
2023/07/09 04:55:02;;;;;;;2.30;2.10;;;20.60;97.90;;;;;;5063243;28;20252;-66
2023/07/09 04:57:29;;;;;;;2.05;1.95;;;20.70;97.90;;;;;;5061875;28;20219;-66
2023/07/09 04:59:56;;;;;;;1.60;1.50;;;20.70;97.90;;;;;;5040949;28;20288;-66
2023/07/09 05:02:25;;;;;;;4.95;2.45;;;20.80;97.90;;;;;;5056613;28;20553;-66
2023/07/09 05:04:52;;;;;;;2.28;2.10;;;20.80;98.00;;;;;;5057126;28;20572;-66
2023/07/09 05:07:20;;;;;;;1.88;1.77;;;20.80;98.10;;;;;;5055937;28;20201;-67
2023/07/09 05:09:47;;;;;;;1.63;1.52;;;20.80;98.10;;;;;;5054629;28;20234;-68
2023/07/09 05:12:14;;;;;;;2.05;1.85;;;20.80;98.20;;;;;;5044535;28;20565;-67
2023/07/09 05:14:41;;;;;;;1.85;1.45;;;20.80;98.30;;;;;;5044330;28;20201;-67
2023/07/09 05:17:09;;;;;;;1.90;1.80;;;20.80;98.30;;;;;;5059181;28;20267;-67
2023/07/09 05:19:38;;;;;;;1.85;1.75;;;20.80;98.30;;;;;;5064826;28;20200;-67
2023/07/09 05:22:05;;;;;;;1.10;1.10;;;20.80;98.40;;;;;;5052881;28;20237;-68
2023/07/09 05:24:32;;;;;;;1.70;1.60;;;20.90;98.50;;;;;;5063378;28;20641;-68
2023/07/09 05:26:59;;;;;;;1.63;1.52;;;20.90;98.50;;;;;;5071988;28;20189;-67
2023/07/09 05:29:26;;;;;;;1.25;1.20;;;20.90;98.60;;;;;;5061749;28;20262;-67
2023/07/09 05:31:53;;;;;;;1.60;1.50;;;20.90;98.60;;;;;;5069563;28;20228;-68
2023/07/09 05:34:21;;;;;;;1.00;1.00;;;20.90;98.60;;;;;;5059519;28;20203;-67
2023/07/09 05:36:49;;;;;;;2.47;1.52;;;20.90;98.70;;;;;;5062556;28;20217;-67
2023/07/09 05:39:17;;;;;;;1.38;1.30;;;20.90;98.70;;;;;;5058693;28;20197;-67
2023/07/09 05:41:44;;;;;;;2.67;1.67;;;20.90;98.80;;;;;;5061175;28;20247;-67
2023/07/09 05:44:11;;;;;;;1.95;1.30;;;20.90;98.80;;;;;;5062100;28;20665;-67
2023/07/09 05:46:38;;;;;;;1.10;1.10;;;21.00;98.90;;;;;;5041491;28;20278;-66
2023/07/09 05:49:06;;;;;;;1.38;1.27;;;21.00;98.90;;;;;;5067241;28;20201;-68
2023/07/09 05:51:34;;;;;;;2.00;1.40;;;21.00;98.90;;;;;;5061411;28;20297;-68
2023/07/09 05:54:02;;;;;;;1.50;1.40;;;21.00;98.90;;;;;;5061292;28;20207;-68
2023/07/09 05:56:30;;;;;;;1.85;1.30;;;21.10;99.00;;;;;;5061058;28;20222;-67
2023/07/09 05:58:57;;;;;;;1.27;1.27;;;21.10;99.00;;;;;;5059613;28;20221;-67
2023/07/09 06:01:25;;;;;;;1.63;1.35;;;21.10;99.00;;;;;;5062840;28;20199;-66
2023/07/09 06:03:53;;;;;;;1.75;1.65;;;21.20;99.00;;;;;;5061243;28;20747;-67
2023/07/09 06:06:20;;;;;;;1.52;1.42;;;21.20;99.00;;;;;;5056522;28;20228;-67
2023/07/09 06:08:47;;;;;;;1.08;1.08;;;21.20;99.00;;;;;;5056734;28;20658;-67
2023/07/09 06:11:17;;;;;;;0.80;0.80;;;21.30;98.90;;;;;;5056664;28;20557;-67
2023/07/09 06:13:44;;;;;;;2.10;2.00;;;21.30;98.90;;;;;;5055581;28;20205;-66
2023/07/09 06:16:11;;;;;;;1.52;1.42;;;21.40;98.90;;;;;;5055251;28;20280;-66
2023/07/09 06:18:38;;;;;;;1.10;1.10;;;21.40;98.80;;;;;;5045467;28;20260;-68
2023/07/09 06:21:07;;;;;;;1.10;1.02;;;21.50;99.00;;;;;;5068442;28;20205;-67
2023/07/09 06:23:34;;;;;;;1.10;1.00;;;21.50;98.40;;;;;;5058586;28;20280;-66
2023/07/09 06:26:01;;;;;;;1.25;1.20;;;21.50;98.10;;;;;;5070967;28;20193;-67
2023/07/09 06:28:30;;;;;;;1.52;1.42;;;21.50;97.60;;;;;;5061169;28;20193;-67
2023/07/09 06:30:57;;;;;;;2.38;1.98;;;21.50;97.20;;;;;;5052198;28;20613;-68
2023/07/09 06:33:26;;;;;;;2.55;1.92;;;21.60;96.80;;;;;;5066765;28;20211;-67
2023/07/09 06:35:58;;;;;;;1.73;1.63;;;21.60;96.50;;;;;;5063329;28;20213;-68
2023/07/09 06:38:25;;;;;;;1.02;1.02;;;21.70;96.30;;;;;;5041404;28;20743;-67
2023/07/09 06:40:52;;;;;;;1.42;1.33;;;21.80;96.20;;;;;;5070866;28;20242;-67
2023/07/09 06:43:19;;;;;;;1.00;1.00;;;21.80;96.10;;;;;;5044338;28;20206;-67
2023/07/09 06:45:52;;;;;;;0.88;0.88;;;21.80;95.90;;;;;;5053244;28;20283;-67
2023/07/09 06:48:19;;;;;;;0.90;0.90;;;21.90;95.80;;;;;;5050448;28;20193;-67
2023/07/09 06:50:47;;;;;;;0.88;0.88;;;22.00;95.70;;;;;;5056816;28;20193;-67
2023/07/09 06:53:14;;;;;;;0.85;0.85;;;22.00;95.50;;;;;;5050411;28;20205;-67
2023/07/09 06:55:41;;;;;;;0.90;0.90;;;22.10;95.30;;;;;;5061605;28;20660;-66
2023/07/09 06:58:08;;;;;;;1.65;1.05;;;22.10;95.10;;;;;;5053863;28;20209;-67
2023/07/09 07:00:36;;;;;;;0.80;0.80;;;22.20;94.90;;;;;;5055473;28;20595;-68
2023/07/09 07:03:05;;;;;;;1.15;1.10;;;22.20;94.80;;;;;;5064147;28;20228;-68
2023/07/09 07:05:33;;;;;;;1.77;1.67;;;22.30;94.50;;;;;;5050532;28;20612;-67
2023/07/09 07:08:01;;;;;;;1.98;1.80;;;22.40;93.90;;;;;;5067901;28;20258;-67
2023/07/09 07:10:28;;;;;;;1.40;1.30;;;22.40;93.50;;;;;;5052606;28;20630;-67
2023/07/09 07:12:55;;;;;;;1.20;1.10;;;22.50;93.40;;;;;;5069311;28;20562;-67
2023/07/09 07:15:22;;;;;;;1.33;1.30;;;22.50;93.40;;;;;;5070157;28;20197;-67
2023/07/09 07:17:50;;;;;;;0.90;0.90;;;22.60;93.40;;;;;;5065393;28;20233;-67
2023/07/09 07:20:19;;;;;;;0.90;0.90;;;22.60;93.30;;;;;;5051861;28;20326;-67
2023/07/09 07:22:46;;;;;;;1.02;1.00;;;22.60;93.20;;;;;;5064642;28;20223;-67
2023/07/09 07:25:14;;;;;;;0.88;0.88;;;22.70;93.50;;;;;;5069985;28;20196;-67
2023/07/09 07:27:41;;;;;;;0.98;0.98;;;22.80;93.10;;;;;;5062430;28;20291;-67
2023/07/09 07:30:09;;;;;;;1.10;1.08;;;22.90;93.00;;;;;;5063001;28;20307;-66
2023/07/09 07:32:38;;;;;;;1.60;1.50;;;22.90;92.60;;;;;;5063048;28;20197;-67
2023/07/09 07:35:06;;;;;;;1.55;1.45;;;23.00;91.90;;;;;;5056328;28;20243;-67
2023/07/09 07:37:34;;;;;;;1.10;1.10;;;23.00;91.50;;;;;;5059106;28;20218;-67
2023/07/09 07:40:01;;;;;;;1.13;1.13;;;23.10;91.30;;;;;;5052095;28;20194;-67
2023/07/09 07:42:29;;;;;;;1.20;1.20;;;23.10;91.00;;;;;;5063353;28;20204;-68
2023/07/09 07:44:56;;;;;;;0.90;0.90;;;23.20;91.00;;;;;;5043766;28;20265;-67
2023/07/09 07:47:23;;;;;;;0.80;0.80;;;23.20;91.00;;;;;;5069455;28;20589;-67
2023/07/09 07:49:50;;;;;;;0.70;0.70;;;23.30;90.90;;;;;;5052222;28;20696;-67
2023/07/09 07:52:17;;;;;;;0.80;0.80;;;23.30;90.80;;;;;;5069664;28;20204;-66
2023/07/09 07:54:45;;;;;;;0.70;0.70;;;23.30;90.50;;;;;;5070214;28;20198;-66
2023/07/09 07:57:13;;;;;;;1.13;0.80;;;23.40;90.20;;;;;;5069861;28;20221;-66
2023/07/09 07:59:40;;;;;;;0.98;0.98;;;23.40;90.10;;;;;;5068954;28;20730;-67
2023/07/09 08:02:12;;;;;;;1.10;1.00;;;23.60;90.00;;;;;;5069538;28;20193;-67
2023/07/09 08:04:40;;;;;;;0.75;0.75;;;23.60;89.30;;;;;;5066451;28;20218;-67
2023/07/09 08:07:08;;;;;;;0.82;0.82;;;23.70;89.30;;;;;;5066808;28;20189;-67
2023/07/09 08:09:35;;;;;;;0.70;0.60;;;23.80;89.30;;;;;;5067161;28;20284;-67
2023/07/09 08:12:09;;;;;;;0.75;0.75;;;23.80;89.20;;;;;;5069354;28;20190;-67
2023/07/09 08:14:36;;;;;;;2.35;1.30;;;23.90;89.00;;;;;;5060599;28;20273;-67
2023/07/09 08:17:04;;;;;;;1.30;1.20;;;24.00;87.50;;;;;;5049553;28;20206;-67
2023/07/09 08:19:31;;;;;;;1.20;1.20;;;24.10;86.90;;;;;;5061801;28;20197;-67
2023/07/09 08:21:59;;;;;;;1.77;1.67;;;24.20;86.30;;;;;;5069219;28;20615;-66
2023/07/09 08:24:26;;;;;;;1.23;1.20;;;24.20;84.80;;;;;;5069897;28;20197;-66
2023/07/09 08:26:53;;;;;;;0.90;0.90;;;24.30;84.80;;;;;;5047931;28;20237;-66
2023/07/09 08:29:21;;;;;;;1.15;1.05;;;24.30;85.40;;;;;;5044325;28;20731;-66
2023/07/09 08:31:49;;;;;;;0.90;0.90;;;24.40;84.60;;;;;;5068587;28;20670;-67
2023/07/09 08:34:16;;;;;;;1.38;1.30;;;24.50;84.30;;;;;;5068978;28;20205;-66
2023/07/09 08:36:44;;;;;;;1.50;1.40;;;24.50;83.00;;;;;;5070834;28;20585;-66
2023/07/09 08:39:11;;;;;;;1.50;1.40;;;24.70;82.10;;;;;;5059648;28;20622;-67
2023/07/09 08:41:44;;;;;;;3.55;1.83;;;24.70;81.50;;;;;;5062496;28;20649;-67
2023/07/09 08:44:29;;;;;;;1.73;1.63;;;24.70;81.20;;;;;;5050823;28;20204;-67
2023/07/09 08:47:03;;;;;;;1.67;1.45;;;24.80;80.80;;;;;;5062711;28;20238;-67
2023/07/09 08:49:39;;;;;;;1.55;1.45;;;24.90;79.40;;;;;;5056869;28;20197;-67
2023/07/09 08:52:15;;;;;;;1.30;1.20;;;24.90;79.40;;;;;;5048336;28;20213;-67
2023/07/09 08:54:45;;;;;;;1.40;1.30;;;25.00;79.40;;;;;;5073135;28;20181;-67
2023/07/09 08:57:21;;;;;;;1.75;1.45;;;25.10;79.20;;;;;;5061952;28;20194;-66
2023/07/09 08:59:52;;;;;;;1.50;1.40;;;25.10;79.10;;;;;;5068308;28;20223;-67
2023/07/09 09:02:30;;;;;;;1.20;1.20;;;25.20;78.30;;;;;;5051864;28;20216;-66
2023/07/09 09:04:57;;;;;;;1.10;1.10;;;25.30;78.70;;;;;;5073210;28;20188;-67
2023/07/09 09:07:35;;;;;;;1.20;1.10;;;25.40;78.90;;;;;;5077334;28;20197;-66
2023/07/09 09:10:04;;;;;;;0.95;0.95;;;25.40;79.00;;;;;;5076703;28;20253;-67
2023/07/09 09:12:39;;;;;;;1.00;1.00;;;25.50;79.20;;;;;;5072180;28;20255;-66
2023/07/09 09:15:15;;;;;;;4.63;2.15;;;25.60;79.50;;;;;;5074186;28;20280;-66
2023/07/09 09:17:42;;;;;;;4.95;2.15;;;25.70;79.00;;;;;;5063906;28;20287;-67
2023/07/09 09:20:14;;;;;;;2.13;1.58;;;25.80;78.90;;;;;;5071947;28;20196;-67
2023/07/09 09:22:45;;;;;;;1.48;1.40;;;25.80;78.40;;;;;;5065085;28;20213;-66
2023/07/09 09:25:22;;;;;;;1.63;1.48;;;25.90;78.70;;;;;;5068942;28;20266;-67
2023/07/09 09:27:49;;;;;;;1.00;1.00;;;26.00;78.70;;;;;;5069468;28;20211;-66
2023/07/09 09:30:19;;;;;;;1.15;1.05;;;26.10;78.60;;;;;;5058128;28;20197;-67
2023/07/09 09:32:49;;;;;;;1.02;0.93;;;26.10;78.20;;;;;;5050347;28;20595;-67
2023/07/09 09:35:19;;;;;;;1.02;1.00;;;26.10;77.70;;;;;;5067405;28;20261;-67
2023/07/09 09:37:52;;;;;;;1.60;1.50;;;26.20;77.40;;;;;;5060962;28;20247;-67
2023/07/09 09:40:22;;;;;;;1.70;1.60;;;26.20;75.80;;;;;;5061940;28;20202;-66
2023/07/09 09:42:49;;;;;;;1.40;1.40;;;26.20;74.70;;;;;;5065553;28;20189;-67
2023/07/09 09:45:20;;;;;;;1.60;1.50;;;26.20;74.70;;;;;;5048945;28;20197;-68
2023/07/09 09:47:48;;;;;;;1.58;1.30;;;26.30;74.10;;;;;;5050681;28;20189;-67
2023/07/09 09:50:16;;;;;;;3.75;1.73;;;26.30;73.40;;;;;;5067323;28;20194;-67
2023/07/09 09:52:44;;;;;;;1.05;1.05;;;26.40;73.50;;;;;;5065805;28;20644;-68
2023/07/09 09:55:16;;;;;;;2.38;2.17;;;26.40;72.60;;;;;;5049211;28;20620;-67
2023/07/09 09:57:48;;;;;;;4.57;1.80;;;26.50;71.80;;;;;;5055942;28;20600;-68
2023/07/09 10:00:19;;;;;;;1.63;1.52;;;26.50;70.30;;;;;;5058580;28;20557;-67
2023/07/09 10:02:46;;;;;;;1.20;1.20;;;26.50;70.20;;;;;;5021457;28;20229;-67
2023/07/09 10:05:14;;;;;;;1.10;1.10;;;26.50;70.90;;;;;;5058661;28;20283;-68
2023/07/09 10:07:48;;;;;;;1.40;1.40;;;26.60;71.40;;;;;;5058167;28;20197;-67
2023/07/09 10:10:20;;;;;;;1.10;1.10;;;26.70;71.60;;;;;;5063538;28;20236;-68
2023/07/09 10:12:52;;;;;;;0.90;0.90;;;26.80;71.70;;;;;;5062490;28;20624;-68
2023/07/09 10:15:32;;;;;;;0.80;0.80;;;26.90;71.80;;;;;;5062835;28;20251;-67
2023/07/09 10:18:03;;;;;;;0.80;0.80;;;27.00;71.90;;;;;;5055975;28;20239;-67
2023/07/09 10:20:37;;;;;;;0.70;0.70;;;27.10;71.90;;;;;;5063207;28;20284;-67
2023/07/09 10:23:19;;;;;;;1.02;1.02;;;27.20;71.80;;;;;;5057754;28;20214;-67
2023/07/09 10:25:51;;;;;;;1.13;1.00;;;27.20;70.50;;;;;;5055852;28;20201;-67
2023/07/09 10:28:36;;;;;;;1.55;1.10;;;27.20;70.30;;;;;;5048913;28;20207;-67
2023/07/09 10:31:12;;;;;;;0.90;0.90;;;27.30;70.30;;;;;;5060775;28;20193;-67
2023/07/09 10:33:54;;;;;;;0.90;0.90;;;27.40;70.30;;;;;;5061199;28;20693;-67
2023/07/09 10:36:44;;;;;;;0.70;0.70;;;27.40;70.20;;;;;;5058460;28;20192;-67
2023/07/09 10:39:17;;;;;;;0.80;0.80;;;27.50;70.10;;;;;;5059849;28;20209;-67
2023/07/09 10:41:45;;;;;;;0.75;0.75;;;27.60;69.90;;;;;;5057116;28;20251;-67
2023/07/09 10:44:16;;;;;;;0.68;0.68;;;27.60;69.80;;;;;;5046671;28;20797;-67
2023/07/09 10:46:50;;;;;;;1.23;1.20;;;27.70;69.80;;;;;;5060959;28;20192;-67
2023/07/09 10:49:19;;;;;;;2.45;1.52;;;27.70;68.60;;;;;;5052455;28;20232;-67
2023/07/09 10:51:50;;;;;;;1.52;1.42;;;27.70;66.60;;;;;;5065152;28;20529;-67
2023/07/09 10:54:27;;;;;;;1.63;1.52;;;27.70;65.40;;;;;;5068825;28;20280;-67
2023/07/09 10:57:01;;;;;;;1.60;1.50;;;27.70;64.80;;;;;;5057847;28;20189;-67
2023/07/09 10:59:33;;;;;;;1.70;1.60;;;27.70;65.40;;;;;;5052268;28;20258;-66
2023/07/09 11:02:18;;;;;;;1.50;1.38;;;27.70;64.50;;;;;;5053859;28;20197;-68
2023/07/09 11:04:49;;;;;;;1.50;1.40;;;27.70;64.60;;;;;;5051693;28;20206;-67
2023/07/09 11:07:21;;;;;;;1.88;1.77;;;27.70;64.80;;;;;;5031339;28;20197;-68
2023/07/09 11:09:54;;;;;;;2.13;1.90;;;27.70;64.60;;;;;;5048941;28;20252;-67
2023/07/09 11:12:30;;;;;;;1.70;1.60;;;27.70;64.70;;;;;;5055953;28;20193;-67
2023/07/09 11:15:01;;;;;;;1.13;1.13;;;27.70;64.70;;;;;;5061500;28;20195;-68
2023/07/09 11:17:30;;;;;;;1.40;1.30;;;27.80;64.70;;;;;;5046943;28;20201;-67
2023/07/09 11:20:00;;;;;;;1.55;1.48;;;27.80;63.40;;;;;;5059541;28;20258;-67
2023/07/09 11:22:36;;;;;;;1.65;1.52;;;27.80;63.40;;;;;;5062804;28;20252;-67
2023/07/09 11:25:09;;;;;;;1.27;1.27;;;27.80;63.70;;;;;;5063270;28;20395;-68
2023/07/09 11:27:49;;;;;;;1.33;1.25;;;27.80;62.60;;;;;;5061188;28;20660;-67
2023/07/09 11:30:22;;;;;;;1.38;1.38;;;27.80;62.70;;;;;;5057610;28;20193;-67
2023/07/09 11:32:57;;;;;;;1.52;1.42;;;27.80;63.00;;;;;;5048626;28;20194;-67
2023/07/09 11:35:27;;;;;;;1.35;1.25;;;27.90;63.20;;;;;;5055181;28;20618;-68
2023/07/09 11:37:55;;;;;;;1.15;1.15;;;27.90;63.30;;;;;;5062622;28;20596;-68
2023/07/09 11:40:23;;;;;;;1.77;1.67;;;28.00;63.50;;;;;;5054229;28;20300;-68
2023/07/09 11:42:55;;;;;;;1.30;1.30;;;28.00;63.00;;;;;;5057582;28;20331;-67
2023/07/09 11:45:27;;;;;;;1.63;1.52;;;28.00;63.10;;;;;;5054009;28;20198;-67
2023/07/09 11:48:04;;;;;;;2.00;1.90;;;28.10;62.90;;;;;;5054565;28;20193;-67
2023/07/09 11:50:35;;;;;;;1.40;1.30;;;28.10;62.70;;;;;;5055759;28;20209;-67
2023/07/09 11:53:16;;;;;;;1.17;1.17;;;28.10;62.60;;;;;;5062138;28;20197;-68
2023/07/09 11:55:45;;;;;;;1.30;1.20;;;28.10;62.80;;;;;;5057829;28;20224;-67
2023/07/09 11:58:13;;;;;;;1.27;1.17;;;28.10;62.90;;;;;;5054480;28;20255;-67
2023/07/09 12:00:42;;;;;;;1.15;1.15;;;28.10;63.00;;;;;;5050326;28;20874;-67
2023/07/09 12:03:17;;;;;;;1.42;1.30;;;28.10;62.70;;;;;;5054698;28;20193;-67
2023/07/09 12:05:50;;;;;;;1.08;1.08;;;28.10;62.90;;;;;;5063751;28;20194;-67
2023/07/09 12:08:18;;;;;;;1.15;1.15;;;28.20;62.80;;;;;;5058849;28;20534;-67
2023/07/09 12:10:45;;;;;;;1.40;1.30;;;28.20;62.70;;;;;;5057364;28;20254;-67
2023/07/09 12:13:14;;;;;;;1.60;1.55;;;28.30;62.60;;;;;;5056870;28;20727;-67
2023/07/09 12:15:41;;;;;;;1.30;1.30;;;28.20;62.30;;;;;;5062988;28;20197;-67
2023/07/09 12:18:15;;;;;;;1.20;1.20;;;28.30;62.00;;;;;;5053962;28;20220;-68
2023/07/09 12:20:45;;;;;;;1.42;1.30;;;28.30;62.00;;;;;;5057541;28;20212;-67
2023/07/09 12:23:21;;;;;;;1.35;1.35;;;28.30;61.80;;;;;;5064415;28;20218;-68
2023/07/09 12:25:50;;;;;;;1.10;1.10;;;28.30;61.60;;;;;;5066992;28;20188;-68
2023/07/09 12:28:17;;;;;;;1.10;1.00;;;28.40;61.30;;;;;;5064037;28;20279;-68
2023/07/09 12:30:46;;;;;;;1.30;1.20;;;28.40;61.30;;;;;;5067251;28;20193;-67
2023/07/09 12:33:17;;;;;;;1.55;1.52;;;28.40;60.80;;;;;;5053291;28;20688;-66
2023/07/09 12:35:45;;;;;;;1.55;1.45;;;28.40;60.20;;;;;;5066376;28;20603;-67
2023/07/09 12:38:20;;;;;;;1.63;1.52;;;28.40;60.30;;;;;;5063520;28;20581;-67
2023/07/09 12:40:48;;;;;;;1.40;1.30;;;28.40;60.40;;;;;;5064006;28;20188;-67
2023/07/09 12:43:18;;;;;;;1.52;1.20;;;28.50;60.60;;;;;;5059039;28;20236;-67
2023/07/09 12:45:45;;;;;;;1.20;1.20;;;28.50;60.50;;;;;;5057437;28;20212;-67
2023/07/09 12:48:14;;;;;;;1.27;1.17;;;28.50;60.60;;;;;;5055456;28;20204;-67
2023/07/09 12:50:42;;;;;;;1.13;1.00;;;28.60;60.70;;;;;;5058043;28;20204;-68
2023/07/09 12:53:15;;;;;;;0.95;0.95;;;28.60;60.90;;;;;;5068231;28;20224;-67
2023/07/09 12:55:45;;;;;;;1.30;1.20;;;28.70;60.70;;;;;;5058947;28;20207;-68
2023/07/09 12:58:18;;;;;;;1.50;1.40;;;28.80;60.70;;;;;;5041298;28;20263;-68
2023/07/09 13:00:51;;;;;;;1.25;1.25;;;28.80;60.30;;;;;;5055869;28;20308;-68